createdAt,value
2022-09-26T00:00:19.438Z,100.00
2022-09-26T00:02:50.602Z,100.00
2022-09-26T00:05:20.977Z,100.00
2022-09-26T00:07:51.627Z,100.00
2022-09-26T00:10:22.576Z,100.00
2022-09-26T00:12:54.606Z,100.00
2022-09-26T00:15:25.969Z,100.00
2022-09-26T00:17:56.881Z,100.00
2022-09-26T00:20:27.138Z,100.00
2022-09-26T00:23:00.267Z,100.00
2022-09-26T00:25:34.185Z,100.00
2022-09-26T00:28:04.995Z,100.00
2022-09-26T00:30:37.532Z,100.00
2022-09-26T00:33:08.629Z,100.00
2022-09-26T00:35:39.420Z,100.00
2022-09-26T00:38:10.142Z,100.00
2022-09-26T00:40:40.740Z,100.00
2022-09-26T00:43:35.252Z,100.00
2022-09-26T00:46:09.168Z,100.00
2022-09-26T00:48:42.349Z,100.00
2022-09-26T00:51:13.301Z,100.00
2022-09-26T00:53:46.687Z,100.00
2022-09-26T00:56:40.482Z,100.00
2022-09-26T00:59:19.335Z,100.00
2022-09-26T01:01:54.856Z,100.00
2022-09-26T01:04:28.472Z,100.00
2022-09-26T01:07:02.318Z,100.00
2022-09-26T01:09:33.238Z,100.00
2022-09-26T01:12:06.735Z,100.00
2022-09-26T01:14:40.270Z,100.00
2022-09-26T01:17:11.486Z,100.00
2022-09-26T01:19:59.455Z,100.00
2022-09-26T01:25:45.712Z,100.00
2022-09-26T01:28:35.367Z,100.00
2022-09-26T01:34:24.786Z,100.00
2022-09-26T01:40:13.161Z,100.00
2022-09-26T01:43:01.236Z,100.00
2022-09-26T01:48:20.224Z,100.00
2022-09-26T01:50:59.399Z,100.00
2022-09-26T01:53:50.390Z,100.00
2022-09-26T01:56:26.393Z,100.00
2022-09-26T01:58:59.553Z,100.00
2022-09-26T02:01:33.230Z,100.00
2022-09-26T02:04:06.930Z,100.00
2022-09-26T02:06:56.355Z,100.00
2022-09-26T02:09:36.010Z,100.00
2022-09-26T02:12:09.242Z,100.00
2022-09-26T02:14:46.441Z,100.00
2022-09-26T02:17:19.794Z,100.00
2022-09-26T02:19:53.645Z,100.00
2022-09-26T02:22:28.009Z,100.00
2022-09-26T02:24:58.596Z,100.00
2022-09-26T02:27:29.485Z,100.00
2022-09-26T02:29:59.969Z,100.00
2022-09-26T02:32:32.089Z,100.00
2022-09-26T02:35:05.225Z,100.00
2022-09-26T02:37:36.942Z,100.00
2022-09-26T02:40:08.115Z,100.00
2022-09-26T02:42:46.054Z,100.00
2022-09-26T02:45:37.985Z,100.00
2022-09-26T02:48:38.233Z,100.00
2022-09-26T02:51:26.771Z,100.00
2022-09-26T02:54:25.639Z,100.00
2022-09-26T02:57:23.104Z,100.00
2022-09-26T03:00:04.815Z,100.00
2022-09-26T03:02:38.444Z,100.00
2022-09-26T03:05:14.359Z,100.00
2022-09-26T03:07:50.772Z,100.00
2022-09-26T03:10:22.512Z,100.00
2022-09-26T03:12:54.428Z,100.00
2022-09-26T03:15:26.042Z,100.00
2022-09-26T03:17:59.513Z,100.00
2022-09-26T03:20:30.147Z,100.00
2022-09-26T03:23:02.071Z,100.00
2022-09-26T03:25:32.844Z,100.00
2022-09-26T03:28:03.259Z,100.00
2022-09-26T03:30:34.390Z,100.00
2022-09-26T03:33:04.562Z,100.00
2022-09-26T03:35:34.897Z,100.00
2022-09-26T03:38:05.232Z,100.00
2022-09-26T03:40:40.924Z,100.00
2022-09-26T03:43:11.753Z,100.00
2022-09-26T03:45:42.057Z,100.00
2022-09-26T03:48:12.171Z,100.00
2022-09-26T03:50:43.813Z,100.00
2022-09-26T03:53:14.083Z,100.00
2022-09-26T03:55:44.328Z,100.00
2022-09-26T03:58:14.666Z,100.00
2022-09-26T04:00:45.022Z,100.00
2022-09-26T04:03:15.868Z,100.00
2022-09-26T04:05:46.406Z,100.00
2022-09-26T04:08:16.832Z,100.00
2022-09-26T04:10:47.382Z,100.00
2022-09-26T04:13:46.517Z,100.00
2022-09-26T04:15:58.017Z,100.00
2022-09-26T04:18:35.987Z,100.00
2022-09-26T04:21:10.153Z,100.00
2022-09-26T04:23:42.002Z,100.00
2022-09-26T04:26:20.186Z,100.00
2022-09-26T04:28:47.407Z,100.00
2022-09-26T04:31:18.147Z,100.00
2022-09-26T04:33:48.514Z,100.00
2022-09-26T04:36:18.967Z,100.00
2022-09-26T04:38:49.327Z,100.00
2022-09-26T04:41:22.242Z,100.00
2022-09-26T04:43:54.985Z,100.00
2022-09-26T04:46:30.660Z,100.00
2022-09-26T04:49:01.121Z,100.00
2022-09-26T04:51:32.683Z,100.00
2022-09-26T04:54:03.250Z,100.00
2022-09-26T04:56:34.449Z,100.00
2022-09-26T04:59:04.778Z,100.00
2022-09-26T05:01:35.596Z,100.00
2022-09-26T05:04:06.159Z,100.00
2022-09-26T05:06:36.491Z,100.00
2022-09-26T05:09:06.870Z,100.00
2022-09-26T05:11:37.823Z,100.00
2022-09-26T05:14:08.572Z,100.00
2022-09-26T05:16:39.587Z,100.00
2022-09-26T05:19:09.867Z,100.00
2022-09-26T05:21:40.221Z,100.00
2022-09-26T05:24:11.298Z,100.00
2022-09-26T05:26:45.810Z,100.00
2022-09-26T05:29:16.481Z,100.00
2022-09-26T05:31:47.409Z,100.00
2022-09-26T05:34:20.128Z,100.00
2022-09-26T05:36:50.995Z,100.00
2022-09-26T05:39:21.591Z,100.00
2022-09-26T05:41:53.474Z,100.00
2022-09-26T05:44:23.917Z,100.00
2022-09-26T05:46:54.566Z,100.00
2022-09-26T05:49:25.478Z,100.00
2022-09-26T05:51:56.613Z,100.00
2022-09-26T05:54:27.374Z,100.00
2022-09-26T05:56:57.619Z,100.00
2022-09-26T05:59:27.956Z,100.00
2022-09-26T06:01:58.324Z,100.00
2022-09-26T06:04:28.808Z,100.00
2022-09-26T06:06:59.672Z,100.00
2022-09-26T06:09:30.231Z,100.00
2022-09-26T06:12:00.609Z,100.00
2022-09-26T06:14:31.868Z,99.73
2022-09-26T06:17:02.349Z,98.49
2022-09-26T06:19:45.776Z,98.49
2022-09-26T06:22:16.214Z,98.48
2022-09-26T06:24:46.785Z,95.54
2022-09-26T06:27:22.794Z,95.54
2022-09-26T06:29:53.999Z,98.49
2022-09-26T06:32:26.240Z,98.49
2022-09-26T06:34:56.699Z,100.00
2022-09-26T06:37:27.072Z,100.00
2022-09-26T06:39:59.541Z,100.00
2022-09-26T06:42:31.014Z,100.00
2022-09-26T06:45:01.331Z,100.00
2022-09-26T06:47:31.840Z,100.00
2022-09-26T06:50:02.557Z,100.00
2022-09-26T06:52:33.489Z,100.00
2022-09-26T06:55:05.644Z,100.00
2022-09-26T06:57:41.194Z,100.00
2022-09-26T07:00:15.554Z,100.00
2022-09-26T07:02:53.817Z,100.00
2022-09-26T07:05:24.953Z,100.00
2022-09-26T07:07:55.524Z,100.00
2022-09-26T07:10:39.299Z,100.00
2022-09-26T07:13:15.853Z,100.00
2022-09-26T07:15:46.836Z,100.00
2022-09-26T07:18:32.565Z,100.00
2022-09-26T07:21:07.383Z,100.00
2022-09-26T07:23:37.752Z,100.00
2022-09-26T07:26:08.138Z,100.00
2022-09-26T07:28:40.679Z,100.00
2022-09-26T07:31:12.743Z,100.00
2022-09-26T07:33:43.091Z,99.43
2022-09-26T07:36:13.499Z,94.65
2022-09-26T07:38:45.791Z,92.42
2022-09-26T07:41:16.611Z,92.42
2022-09-26T07:44:46.181Z,91.38
2022-09-26T07:46:19.440Z,92.00
2022-09-26T07:48:49.755Z,88.30
2022-09-26T07:51:20.394Z,89.40
2022-09-26T07:53:50.820Z,89.40
2022-09-26T07:56:21.024Z,83.63
2022-09-26T07:58:51.328Z,82.93
2022-09-26T08:01:22.085Z,80.67
2022-09-26T08:03:52.339Z,82.39
2022-09-26T08:06:22.597Z,82.39
2022-09-26T08:08:56.658Z,82.60
2022-09-26T08:11:27.851Z,83.13
2022-09-26T08:13:58.716Z,81.87
2022-09-26T08:16:29.429Z,78.93
2022-09-26T08:19:00.650Z,79.01
2022-09-26T08:21:31.816Z,82.15
2022-09-26T08:24:02.652Z,81.66
2022-09-26T08:26:34.771Z,81.66
2022-09-26T08:29:05.036Z,81.16
2022-09-26T08:31:36.065Z,85.52
2022-09-26T08:34:10.577Z,84.14
2022-09-26T08:36:50.461Z,82.87
2022-09-26T08:39:28.008Z,81.54
2022-09-26T08:42:30.528Z,88.37
2022-09-26T08:45:29.547Z,87.98
2022-09-26T08:48:08.780Z,84.56
2022-09-26T08:51:15.626Z,78.72
2022-09-26T08:53:52.175Z,78.72
2022-09-26T08:56:26.027Z,77.00
2022-09-26T08:58:58.362Z,74.52
2022-09-26T09:01:31.326Z,67.03
2022-09-26T09:04:19.525Z,67.03
2022-09-26T09:06:54.492Z,61.75
2022-09-26T09:09:31.398Z,62.57
2022-09-26T09:12:13.915Z,62.49
2022-09-26T09:15:23.488Z,59.68
2022-09-26T09:17:57.364Z,59.68
2022-09-26T09:20:57.519Z,57.20
2022-09-26T09:23:45.069Z,56.02
2022-09-26T09:29:54.174Z,57.00
2022-09-26T09:32:36.048Z,58.15
2022-09-26T09:35:08.275Z,58.15
2022-09-26T09:37:41.570Z,59.56
2022-09-26T09:40:20.668Z,59.56
2022-09-26T09:42:56.205Z,58.50
2022-09-26T09:45:50.670Z,60.40
2022-09-26T09:48:21.136Z,61.99
2022-09-26T09:50:57.280Z,62.96
2022-09-26T09:53:57.549Z,65.03
2022-09-26T09:56:43.109Z,64.03
2022-09-26T09:59:34.167Z,64.03
2022-09-26T10:02:22.397Z,56.37
2022-09-26T10:05:18.195Z,56.80
2022-09-26T10:07:49.509Z,58.15
2022-09-26T10:10:23.082Z,58.15
2022-09-26T10:12:53.865Z,56.55
2022-09-26T10:15:24.952Z,56.61
2022-09-26T10:18:26.426Z,56.05
2022-09-26T10:21:03.919Z,56.40
2022-09-26T10:23:37.195Z,57.57
2022-09-26T10:26:10.157Z,57.25
2022-09-26T10:29:06.869Z,57.25
2022-09-26T10:31:42.625Z,58.34
2022-09-26T10:34:29.038Z,59.98
2022-09-26T10:37:18.886Z,55.57
2022-09-26T10:42:51.563Z,54.69
2022-09-26T10:45:22.121Z,55.69
2022-09-26T10:47:53.644Z,55.69
2022-09-26T10:50:30.686Z,53.24
2022-09-26T10:53:04.716Z,50.97
2022-09-26T10:55:40.194Z,50.39
2022-09-26T10:58:24.803Z,46.67
2022-09-26T11:00:57.591Z,46.67
2022-09-26T11:03:42.834Z,44.12
2022-09-26T11:06:34.383Z,45.61
2022-09-26T11:09:06.074Z,47.01
2022-09-26T11:11:39.201Z,46.52
2022-09-26T11:14:11.875Z,46.83
2022-09-26T11:16:50.649Z,44.51
2022-09-26T11:19:26.748Z,44.51
2022-09-26T11:22:08.250Z,45.88
2022-09-26T11:25:01.993Z,46.60
2022-09-26T11:27:41.069Z,44.01
2022-09-26T11:30:20.239Z,44.01
2022-09-26T11:32:55.253Z,48.01
2022-09-26T11:35:48.688Z,48.53
2022-09-26T11:38:22.109Z,48.94
2022-09-26T11:41:00.106Z,46.02
2022-09-26T11:43:42.493Z,46.36
2022-09-26T11:46:36.549Z,46.36
2022-09-26T11:49:26.639Z,45.47
2022-09-26T11:52:05.395Z,43.15
2022-09-26T11:54:44.681Z,43.15
2022-09-26T11:57:32.999Z,43.17
2022-09-26T12:00:12.664Z,42.21
2022-09-26T12:02:55.242Z,39.43
2022-09-26T12:05:48.382Z,40.74
2022-09-26T12:08:36.548Z,40.74
2022-09-26T12:11:22.330Z,41.15
2022-09-26T12:13:56.452Z,41.15
2022-09-26T12:16:29.789Z,42.92
2022-09-26T12:19:16.285Z,39.51
2022-09-26T12:22:02.481Z,41.10
2022-09-26T12:24:45.281Z,41.10
2022-09-26T12:27:27.856Z,41.03
2022-09-26T12:30:14.436Z,41.03
2022-09-26T12:32:52.049Z,40.45
2022-09-26T12:35:40.472Z,40.92
2022-09-26T12:38:34.854Z,46.89
2022-09-26T12:41:30.762Z,46.89
2022-09-26T12:44:13.041Z,45.65
2022-09-26T12:47:04.773Z,46.54
2022-09-26T12:49:52.390Z,46.54
2022-09-26T12:52:41.467Z,48.13
2022-09-26T12:55:41.492Z,47.91
2022-09-26T12:58:45.428Z,47.91
2022-09-26T13:01:49.381Z,48.32
2022-09-26T13:04:37.589Z,45.10
2022-09-26T13:07:19.298Z,45.10
2022-09-26T13:10:05.611Z,42.52
2022-09-26T13:12:43.964Z,46.09
2022-09-26T13:15:34.384Z,46.09
2022-09-26T13:18:24.324Z,51.07
2022-09-26T13:21:29.268Z,51.07
2022-09-26T13:24:05.676Z,52.92
2022-09-26T13:26:41.455Z,52.92
2022-09-26T13:35:22.583Z,49.28
2022-09-26T13:38:16.603Z,51.31
2022-09-26T13:41:28.904Z,52.32
2022-09-26T13:44:04.954Z,48.74
2022-09-26T13:47:17.839Z,48.74
2022-09-26T13:49:57.533Z,46.12
2022-09-26T13:52:30.868Z,48.23
2022-09-26T13:55:13.310Z,49.78
2022-09-26T13:58:20.243Z,52.28
2022-09-26T14:00:52.840Z,51.42
2022-09-26T14:03:27.167Z,51.16
2022-09-26T14:06:09.136Z,51.16
2022-09-26T14:08:45.506Z,50.85
2022-09-26T14:11:27.719Z,51.76
2022-09-26T14:14:19.624Z,52.67
2022-09-26T14:16:54.931Z,52.67
2022-09-26T14:19:37.332Z,53.47
2022-09-26T14:22:19.658Z,54.16
2022-09-26T14:24:58.606Z,54.21
2022-09-26T14:27:41.258Z,54.21
2022-09-26T14:30:27.118Z,54.51
2022-09-26T14:33:02.258Z,55.50
2022-09-26T14:35:41.256Z,54.88
2022-09-26T14:38:24.773Z,54.98
2022-09-26T14:41:04.169Z,56.53
2022-09-26T14:43:41.886Z,56.53
2022-09-26T14:46:20.875Z,56.50
2022-09-26T14:48:59.746Z,55.77
2022-09-26T14:51:33.446Z,56.51
2022-09-26T14:54:09.894Z,57.48
2022-09-26T14:56:46.266Z,57.48
2022-09-26T14:59:28.445Z,58.26
2022-09-26T15:02:20.090Z,58.26
2022-09-26T15:05:02.243Z,58.01
2022-09-26T15:07:35.721Z,58.01
2022-09-26T15:10:23.992Z,58.42
2022-09-26T15:13:11.946Z,58.42
2022-09-26T15:16:11.780Z,60.40
2022-09-26T15:21:30.240Z,62.44
2022-09-26T15:24:02.865Z,63.23
2022-09-26T15:26:37.267Z,63.23
2022-09-26T15:29:09.606Z,63.66
2022-09-26T15:31:42.577Z,64.39
2022-09-26T15:34:20.275Z,64.39
2022-09-26T15:37:02.196Z,66.47
2022-09-26T15:39:39.408Z,66.47
2022-09-26T15:42:15.301Z,66.65
2022-09-26T15:45:02.633Z,66.32
2022-09-26T15:50:33.995Z,67.71
2022-09-26T15:53:25.376Z,68.85
2022-09-26T15:56:07.213Z,68.85
2022-09-26T15:58:43.387Z,69.26
2022-09-26T16:01:17.329Z,69.26
2022-09-26T16:03:59.193Z,69.56
2022-09-26T16:06:35.642Z,68.61
2022-09-26T16:09:15.794Z,68.61
2022-09-26T16:11:55.468Z,69.35
2022-09-26T16:14:37.897Z,71.17
2022-09-26T16:17:28.723Z,71.04
2022-09-26T16:20:26.022Z,71.04
2022-09-26T16:23:05.565Z,72.55
2022-09-26T16:25:51.206Z,72.55
2022-09-26T16:28:27.584Z,74.00
2022-09-26T16:31:01.532Z,74.98
2022-09-26T16:33:34.629Z,74.98
2022-09-26T16:36:11.273Z,75.69
2022-09-26T16:38:42.148Z,76.68
2022-09-26T16:41:42.085Z,76.68
2022-09-26T16:44:02.245Z,78.01
2022-09-26T16:46:48.048Z,77.97
2022-09-26T16:49:36.042Z,77.97
2022-09-26T16:52:41.371Z,79.80
2022-09-26T16:55:27.285Z,79.80
2022-09-26T16:58:05.476Z,79.94
2022-09-26T17:00:36.882Z,80.60
2022-09-26T17:03:22.749Z,80.27
2022-09-26T17:07:06.301Z,80.80
2022-09-26T17:08:58.996Z,80.74
2022-09-26T17:11:53.402Z,80.74
2022-09-26T17:14:25.675Z,80.62
2022-09-26T17:17:00.545Z,81.84
2022-09-26T17:19:44.030Z,82.47
2022-09-26T17:22:21.709Z,82.47
2022-09-26T17:25:00.398Z,82.37
2022-09-26T17:27:32.905Z,82.37
2022-09-26T17:30:13.521Z,82.81
2022-09-26T17:32:49.189Z,82.86
2022-09-26T17:35:34.739Z,82.86
2022-09-26T17:38:07.660Z,83.45
2022-09-26T17:43:56.970Z,85.04
2022-09-26T17:46:17.886Z,84.97
2022-09-26T17:48:48.905Z,85.53
2022-09-26T17:51:19.672Z,85.53
2022-09-26T17:53:53.932Z,85.99
2022-09-26T17:56:29.662Z,88.23
2022-09-26T17:59:02.309Z,86.55
2022-09-26T18:01:33.561Z,87.26
2022-09-26T18:04:12.428Z,87.83
2022-09-26T18:06:55.017Z,87.76
2022-09-26T18:09:32.459Z,88.44
2022-09-26T18:12:04.011Z,88.15
2022-09-26T18:14:39.558Z,88.35
2022-09-26T18:17:22.830Z,89.71
2022-09-26T18:19:58.278Z,89.54
2022-09-26T18:22:36.880Z,90.32
2022-09-26T18:25:10.857Z,90.32
2022-09-26T18:27:41.770Z,90.20
2022-09-26T18:30:23.874Z,91.03
2022-09-26T18:33:03.113Z,91.19
2022-09-26T18:35:37.747Z,91.19
2022-09-26T18:38:10.560Z,91.74
2022-09-26T18:40:44.869Z,92.23
2022-09-26T18:43:18.238Z,92.58
2022-09-26T18:45:54.023Z,93.43
2022-09-26T18:48:36.834Z,93.46
2022-09-26T18:51:08.615Z,94.31
2022-09-26T18:53:40.090Z,95.61
2022-09-26T18:56:14.690Z,95.61
2022-09-26T18:58:46.479Z,98.05
2022-09-26T19:01:21.245Z,96.95
2022-09-26T19:03:55.512Z,98.61
2022-09-26T19:06:37.557Z,99.51
2022-09-26T19:09:22.269Z,98.54
2022-09-26T19:11:54.194Z,99.43
2022-09-26T19:14:32.115Z,99.92
2022-09-26T19:17:03.077Z,99.92
2022-09-26T19:19:34.920Z,100.00
2022-09-26T19:22:08.649Z,100.00
2022-09-26T19:24:57.923Z,100.00
2022-09-26T19:27:48.042Z,100.00
2022-09-26T19:30:21.197Z,100.00
2022-09-26T19:32:55.738Z,100.00
2022-09-26T19:35:38.610Z,100.00
2022-09-26T19:38:24.200Z,100.00
2022-09-26T19:41:10.206Z,99.59
2022-09-26T19:43:30.038Z,98.96
2022-09-26T19:46:00.580Z,99.22
2022-09-26T19:48:37.822Z,98.95
2022-09-26T19:51:06.655Z,98.95
2022-09-26T19:53:41.164Z,97.88
2022-09-26T19:56:13.317Z,98.66
2022-09-26T19:58:48.597Z,98.65
2022-09-26T20:01:38.746Z,97.73
2022-09-26T20:03:59.804Z,98.31
2022-09-26T20:06:35.436Z,98.31
2022-09-26T20:09:08.821Z,97.97
2022-09-26T20:11:50.803Z,97.52
2022-09-26T20:14:22.455Z,97.11
2022-09-26T20:16:59.182Z,97.11
2022-09-26T20:19:41.328Z,99.52
2022-09-26T20:22:21.280Z,99.36
2022-09-26T20:24:56.896Z,100.00
2022-09-26T20:27:31.436Z,99.43
2022-09-26T20:30:01.853Z,99.43
2022-09-26T20:32:32.459Z,100.00
2022-09-26T20:35:03.676Z,100.00
2022-09-26T20:37:45.013Z,100.00
2022-09-26T20:43:24.227Z,100.00
2022-09-26T20:45:57.165Z,100.00
2022-09-26T20:48:29.599Z,100.00
2022-09-26T20:51:03.297Z,100.00
2022-09-26T20:53:37.094Z,100.00
2022-09-26T20:56:15.330Z,100.00
2022-09-26T20:58:48.731Z,100.00
2022-09-26T21:01:22.175Z,100.00
2022-09-26T21:03:55.121Z,100.00
2022-09-26T21:06:34.354Z,100.00
2022-09-26T21:09:04.825Z,100.00
2022-09-26T21:11:36.327Z,100.00
2022-09-26T21:14:07.343Z,100.00
2022-09-26T21:16:41.675Z,100.00
2022-09-26T21:19:26.055Z,100.00
2022-09-26T21:21:56.547Z,100.00
2022-09-26T21:24:32.978Z,100.00
2022-09-26T21:27:03.731Z,100.00
2022-09-26T21:29:40.298Z,100.00
2022-09-26T21:32:16.101Z,100.00
2022-09-26T21:34:52.190Z,100.00
2022-09-26T21:37:25.502Z,100.00
2022-09-26T21:39:59.691Z,100.00
2022-09-26T21:42:30.769Z,100.00
2022-09-26T21:45:04.081Z,100.00
2022-09-26T21:47:34.452Z,100.00
2022-09-26T21:50:07.304Z,100.00
2022-09-26T21:52:43.367Z,100.00
2022-09-26T21:55:19.122Z,100.00
2022-09-26T21:57:51.461Z,100.00
2022-09-26T22:00:21.837Z,100.00
2022-09-26T22:02:52.314Z,100.00
2022-09-26T22:05:23.342Z,100.00
2022-09-26T22:07:53.840Z,100.00
2022-09-26T22:10:24.239Z,100.00
2022-09-26T22:12:54.966Z,100.00
2022-09-26T22:15:25.663Z,100.00
2022-09-26T22:17:56.070Z,100.00
2022-09-26T22:20:26.898Z,100.00
2022-09-26T22:22:57.297Z,100.00
2022-09-26T22:25:27.571Z,100.00
2022-09-26T22:27:57.870Z,100.00
2022-09-26T22:30:28.365Z,100.00
2022-09-26T22:32:58.793Z,100.00
2022-09-26T22:35:29.127Z,100.00
2022-09-26T22:37:59.355Z,100.00
2022-09-26T22:40:29.749Z,100.00
2022-09-26T22:43:00.055Z,100.00
2022-09-26T22:45:30.534Z,100.00
2022-09-26T22:48:00.809Z,100.00
2022-09-26T22:50:31.316Z,100.00
2022-09-26T22:53:01.776Z,100.00
2022-09-26T22:55:32.145Z,100.00
2022-09-26T22:58:02.504Z,100.00
2022-09-26T23:00:32.953Z,100.00
2022-09-26T23:03:03.740Z,100.00
2022-09-26T23:05:34.450Z,100.00
2022-09-26T23:08:04.770Z,100.00
2022-09-26T23:10:35.633Z,100.00
2022-09-26T23:13:05.999Z,100.00
2022-09-26T23:15:37.663Z,100.00
2022-09-26T23:18:08.652Z,100.00
2022-09-26T23:20:40.752Z,100.00
2022-09-26T23:23:13.237Z,100.00
2022-09-26T23:25:52.440Z,100.00
2022-09-26T23:28:22.620Z,100.00
2022-09-26T23:30:53.135Z,100.00
2022-09-26T23:33:23.584Z,100.00
2022-09-26T23:36:20.572Z,100.00
2022-09-26T23:38:50.916Z,100.00
2022-09-26T23:41:24.431Z,100.00
2022-09-26T23:43:54.955Z,100.00
2022-09-26T23:46:25.468Z,100.00
2022-09-26T23:48:55.731Z,100.00
2022-09-26T23:51:31.888Z,100.00
2022-09-26T23:54:02.648Z,100.00
2022-09-26T23:56:33.162Z,100.00
2022-09-26T23:59:03.564Z,100.00
